Time;durP1;ratioP1;P1;durP2;ratioP2;P2;SDS_P1;SDS_P2;PMS_P1;PMS_P2;Temp;Humidity;BMP_temperature;BMP_pressure;BME280_temperature;BME280_humidity;BME280_pressure;Samples;Min_cycle;Max_cycle;Signal;HPM_P1;HPM_P2
2023/08/26 00:01:32;;;;;;;3.60;2.80;;;;;;;;;;5015580;27;92704;-62
2023/08/26 00:03:59;;;;;;;7.93;3.67;;;;;;;;;;5022491;27;92495;-63
2023/08/26 00:06:25;;;;;;;10.07;3.17;;;;;;;;;;5018035;27;93436;-63
2023/08/26 00:08:52;;;;;;;5.53;3.10;;;;;;;;;;5016230;27;92522;-63
2023/08/26 00:11:18;;;;;;;14.02;4.07;;;;;;;;;;5025453;27;93089;-63
2023/08/26 00:13:44;;;;;;;9.07;3.42;;;;;;;;;;5015589;27;93652;-63
2023/08/26 00:16:12;;;;;;;5.60;3.13;;;;;;;;;;5023804;27;91804;-63
2023/08/26 00:18:39;;;;;;;10.60;3.45;;;;;;;;;;5023521;27;92357;-62
2023/08/26 00:21:05;;;;;;;9.63;3.50;;;;;;;;;;5019410;27;94718;-62
2023/08/26 00:23:31;;;;;;;5.80;3.80;;;;;;;;;;5014829;27;94916;-63
2023/08/26 00:25:58;;;;;;;8.63;3.20;;;;;;;;;;5022007;27;95469;-63
2023/08/26 00:28:24;;;;;;;9.32;4.13;;;;;;;;;;5018954;27;92592;-63
2023/08/26 00:30:58;;;;;;;11.32;3.25;;;;;;;;;;5016739;27;94150;-62
2023/08/26 00:33:25;;;;;;;4.10;3.10;;;;;;;;;;5026693;27;93318;-64
2023/08/26 00:35:51;;;;;;;9.15;3.60;;;;;;;;;;5018264;27;92422;-63
2023/08/26 00:38:17;;;;;;;10.25;3.78;;;;;;;;;;5016930;27;93821;-63
2023/08/26 00:40:44;;;;;;;14.55;3.47;;;;;;;;;;5020495;27;93782;-63
2023/08/26 00:43:10;;;;;;;8.05;3.20;;;;;;;;;;5018531;27;92605;-61
2023/08/26 00:45:38;;;;;;;7.15;3.67;;;;;;;;;;5016795;27;94058;-63
2023/08/26 00:48:04;;;;;;;6.38;4.00;;;;;;;;;;5020820;27;95787;-63
2023/08/26 00:50:31;;;;;;;10.20;3.20;;;;;;;;;;5015839;27;95489;-63
2023/08/26 00:52:57;;;;;;;9.13;3.50;;;;;;;;;;5015067;27;93324;-63
2023/08/26 00:55:23;;;;;;;9.05;3.33;;;;;;;;;;5013717;27;92584;-63
2023/08/26 00:57:50;;;;;;;9.13;3.92;;;;;;;;;;5014565;27;94117;-60
2023/08/26 01:00:16;;;;;;;11.68;3.75;;;;;;;;;;5014726;27;93403;-60
2023/08/26 01:02:43;;;;;;;11.25;3.80;;;;;;;;;;5016241;27;92556;-59
2023/08/26 01:05:09;;;;;;;8.48;3.40;;;;;;;;;;5022057;27;94329;-59
2023/08/26 01:07:36;;;;;;;9.25;3.70;;;;;;;;;;5017431;27;93305;-60
2023/08/26 01:10:03;;;;;;;10.73;3.53;;;;;;;;;;5018044;27;92671;-58
2023/08/26 01:12:48;;;;;;;7.57;3.67;;;;;;;;;;5020376;27;97963;-59
2023/08/26 01:15:15;;;;;;;6.50;3.50;;;;;;;;;;5016636;27;92508;-60
2023/08/26 01:17:41;;;;;;;8.32;3.40;;;;;;;;;;5016855;27;93091;-61
2023/08/26 01:20:08;;;;;;;6.18;3.95;;;;;;;;;;5016096;27;93527;-59
2023/08/26 01:22:36;;;;;;;6.97;4.00;;;;;;;;;;5014059;27;92612;-60
2023/08/26 01:25:03;;;;;;;9.57;4.00;;;;;;;;;;5018660;27;93211;-60
2023/08/26 01:27:29;;;;;;;9.82;4.57;;;;;;;;;;5013196;27;93400;-60
2023/08/26 01:29:56;;;;;;;8.30;4.22;;;;;;;;;;5023484;27;91984;-60
2023/08/26 01:32:25;;;;;;;9.13;4.05;;;;;;;;;;5017034;27;93828;-59
2023/08/26 01:34:56;;;;;;;9.35;3.70;;;;;;;;;;5016922;27;92798;-60
2023/08/26 01:37:23;;;;;;;14.13;4.97;;;;;;;;;;5016083;27;94927;-60
2023/08/26 01:39:51;;;;;;;8.60;3.95;;;;;;;;;;5017771;27;93554;-60
2023/08/26 01:42:18;;;;;;;7.15;4.50;;;;;;;;;;5018096;27;92559;-60
2023/08/26 01:44:46;;;;;;;9.98;5.38;;;;;;;;;;5015204;27;93222;-60
2023/08/26 01:47:13;;;;;;;11.40;5.13;;;;;;;;;;5024834;27;93963;-60
2023/08/26 01:49:39;;;;;;;9.93;4.82;;;;;;;;;;5017065;27;92535;-60
2023/08/26 01:52:05;;;;;;;8.32;4.82;;;;;;;;;;5020192;27;93066;-60
2023/08/26 01:54:32;;;;;;;9.77;4.60;;;;;;;;;;5019884;27;91735;-60
2023/08/26 01:56:58;;;;;;;16.35;5.60;;;;;;;;;;5015778;27;92424;-60
2023/08/26 01:59:25;;;;;;;13.40;5.97;;;;;;;;;;5014845;27;94640;-59
2023/08/26 02:01:51;;;;;;;11.60;5.80;;;;;;;;;;5019914;27;94804;-60
2023/08/26 02:04:17;;;;;;;9.90;5.82;;;;;;;;;;5014061;27;95589;-60
2023/08/26 02:06:44;;;;;;;17.08;5.68;;;;;;;;;;5018255;27;93466;-60
2023/08/26 02:09:10;;;;;;;11.20;6.30;;;;;;;;;;5019472;27;92449;-60
2023/08/26 02:11:37;;;;;;;9.80;5.75;;;;;;;;;;5017301;27;92375;-60
2023/08/26 02:14:03;;;;;;;10.80;6.28;;;;;;;;;;5015755;27;93403;-60
2023/08/26 02:16:29;;;;;;;15.75;6.65;;;;;;;;;;5019405;27;93019;-60
2023/08/26 02:18:56;;;;;;;12.13;6.50;;;;;;;;;;5021231;27;92699;-59
2023/08/26 02:21:22;;;;;;;10.75;5.82;;;;;;;;;;5017306;27;92451;-60
2023/08/26 02:23:48;;;;;;;16.15;6.95;;;;;;;;;;5016580;27;93145;-60
2023/08/26 02:26:15;;;;;;;11.10;7.10;;;;;;;;;;5015143;27;95770;-60
2023/08/26 02:28:41;;;;;;;12.23;5.53;;;;;;;;;;5014645;27;92474;-60
2023/08/26 02:31:08;;;;;;;10.63;5.88;;;;;;;;;;5022858;27;94055;-60
2023/08/26 02:33:34;;;;;;;14.70;5.30;;;;;;;;;;5014261;27;93441;-59
2023/08/26 02:36:01;;;;;;;16.77;5.40;;;;;;;;;;5015557;27;92538;-60
2023/08/26 02:38:27;;;;;;;14.55;5.10;;;;;;;;;;5011863;27;94558;-60
2023/08/26 02:40:54;;;;;;;10.27;4.60;;;;;;;;;;5014422;27;92613;-59
2023/08/26 02:43:21;;;;;;;16.30;4.35;;;;;;;;;;5012678;27;94155;-60
2023/08/26 02:45:53;;;;;;;21.70;4.68;;;;;;;;;;5012852;27;93251;-60
2023/08/26 02:48:20;;;;;;;12.07;3.88;;;;;;;;;;5017709;27;92475;-61
2023/08/26 02:50:47;;;;;;;13.07;4.97;;;;;;;;;;5013415;27;94950;-60
2023/08/26 02:53:13;;;;;;;13.10;4.35;;;;;;;;;;5013921;27;93404;-60
2023/08/26 02:55:39;;;;;;;14.60;4.53;;;;;;;;;;5015855;27;92908;-60
2023/08/26 02:58:06;;;;;;;23.98;4.97;;;;;;;;;;5017426;27;93042;-60
2023/08/26 03:00:33;;;;;;;12.95;4.45;;;;;;;;;;5013888;27;92565;-60
2023/08/26 03:02:59;;;;;;;15.90;4.72;;;;;;;;;;5015999;27;94207;-60
2023/08/26 03:05:26;;;;;;;13.80;4.47;;;;;;;;;;5016024;27;93427;-60
2023/08/26 03:07:52;;;;;;;19.10;4.72;;;;;;;;;;5023573;27;91737;-59
2023/08/26 03:10:18;;;;;;;10.13;4.00;;;;;;;;;;5013527;27;92586;-60
2023/08/26 03:12:45;;;;;;;10.20;4.63;;;;;;;;;;5014225;27;93404;-60
2023/08/26 03:15:11;;;;;;;19.42;5.18;;;;;;;;;;5017943;27;96555;-60
2023/08/26 03:17:38;;;;;;;14.88;4.75;;;;;;;;;;5020958;27;95471;-60
2023/08/26 03:20:05;;;;;;;11.18;3.90;;;;;;;;;;5015535;27;94188;-60
2023/08/26 03:22:31;;;;;;;17.38;4.22;;;;;;;;;;5015836;27;93464;-60
2023/08/26 03:24:58;;;;;;;15.35;4.18;;;;;;;;;;5013602;27;92480;-60
2023/08/26 03:27:25;;;;;;;14.27;4.55;;;;;;;;;;5015702;27;92467;-60
2023/08/26 03:29:51;;;;;;;16.63;4.85;;;;;;;;;;5012000;27;93131;-60
2023/08/26 03:32:17;;;;;;;14.55;4.28;;;;;;;;;;5020151;27;92600;-60
2023/08/26 03:34:44;;;;;;;14.18;5.07;;;;;;;;;;5013093;27;92636;-59
2023/08/26 03:37:10;;;;;;;14.60;4.70;;;;;;;;;;5011245;27;92435;-61
2023/08/26 03:39:36;;;;;;;15.25;5.25;;;;;;;;;;5014702;27;95818;-60
2023/08/26 03:42:03;;;;;;;22.55;5.88;;;;;;;;;;5015788;27;95529;-60
2023/08/26 03:44:29;;;;;;;14.98;5.38;;;;;;;;;;5019979;27;93818;-60
2023/08/26 03:46:56;;;;;;;15.45;5.28;;;;;;;;;;5018261;27;92615;-59
2023/08/26 03:49:22;;;;;;;12.98;4.90;;;;;;;;;;5017218;27;93137;-60
2023/08/26 03:51:48;;;;;;;16.45;5.15;;;;;;;;;;5015260;27;93271;-59
2023/08/26 03:54:15;;;;;;;14.90;4.95;;;;;;;;;;5011982;27;92700;-60
2023/08/26 03:56:41;;;;;;;14.15;4.63;;;;;;;;;;5015267;27;94222;-61
2023/08/26 03:59:08;;;;;;;15.63;5.30;;;;;;;;;;5025237;27;92928;-60
2023/08/26 04:01:35;;;;;;;14.93;5.20;;;;;;;;;;5022115;27;94148;-61
2023/08/26 04:04:04;;;;;;;13.40;5.15;;;;;;;;;;5015012;27;95798;-61
2023/08/26 04:06:31;;;;;;;19.02;5.00;;;;;;;;;;5018210;27;92543;-61
2023/08/26 04:09:01;;;;;;;14.90;5.43;;;;;;;;;;5021340;27;93319;-61
2023/08/26 04:11:28;;;;;;;12.05;5.47;;;;;;;;;;5020802;27;93400;-60
2023/08/26 04:13:54;;;;;;;12.15;5.03;;;;;;;;;;5016819;27;92332;-60
2023/08/26 04:16:21;;;;;;;14.02;5.47;;;;;;;;;;5022135;27;93002;-59
2023/08/26 04:18:50;;;;;;;14.18;5.60;;;;;;;;;;5028758;27;93672;-60
2023/08/26 04:21:17;;;;;;;26.92;5.80;;;;;;;;;;5016509;27;91789;-62
2023/08/26 04:23:43;;;;;;;18.08;5.68;;;;;;;;;;5023399;27;92544;-62
2023/08/26 04:26:10;;;;;;;12.10;5.25;;;;;;;;;;5021333;27;92723;-61
2023/08/26 04:28:36;;;;;;;17.25;6.55;;;;;;;;;;5013150;27;94779;-62
2023/08/26 04:31:03;;;;;;;12.52;5.70;;;;;;;;;;5022930;27;94374;-62
2023/08/26 04:33:29;;;;;;;12.50;5.47;;;;;;;;;;5015336;27;92434;-62
2023/08/26 04:35:56;;;;;;;13.27;5.63;;;;;;;;;;5015152;27;93132;-64
2023/08/26 04:38:22;;;;;;;17.98;5.82;;;;;;;;;;5016534;27;93436;-64
2023/08/26 04:40:48;;;;;;;16.35;5.95;;;;;;;;;;5015091;27;92621;-63
2023/08/26 04:43:15;;;;;;;20.77;5.82;;;;;;;;;;5018726;27;94265;-63
2023/08/26 04:45:41;;;;;;;15.52;4.95;;;;;;;;;;5023427;27;92884;-63
2023/08/26 04:48:08;;;;;;;16.52;5.80;;;;;;;;;;5025455;27;93239;-63
2023/08/26 04:50:34;;;;;;;11.68;5.50;;;;;;;;;;5014212;27;93348;-63
2023/08/26 04:53:01;;;;;;;14.20;5.22;;;;;;;;;;5022462;27;95028;-63
2023/08/26 04:55:27;;;;;;;14.50;5.47;;;;;;;;;;5019305;27;95521;-64
2023/08/26 04:57:54;;;;;;;14.50;5.60;;;;;;;;;;5015243;27;93995;-62
2023/08/26 05:00:21;;;;;;;16.63;5.65;;;;;;;;;;5020583;27;93080;-62
2023/08/26 05:02:47;;;;;;;15.23;5.53;;;;;;;;;;5019365;27;94507;-64
2023/08/26 05:05:13;;;;;;;12.07;5.30;;;;;;;;;;5013216;27;92582;-61
2023/08/26 05:07:40;;;;;;;16.05;4.97;;;;;;;;;;5021247;27;94101;-61
2023/08/26 05:10:07;;;;;;;17.48;5.53;;;;;;;;;;5016859;27;94152;-65
2023/08/26 05:12:33;;;;;;;13.95;5.47;;;;;;;;;;5014295;27;92740;-65
2023/08/26 05:15:00;;;;;;;13.65;5.20;;;;;;;;;;5017000;27;93344;-64
2023/08/26 05:17:27;;;;;;;10.57;5.30;;;;;;;;;;5013594;27;95787;-66
2023/08/26 05:19:53;;;;;;;12.05;5.57;;;;;;;;;;5017364;27;92800;-65
2023/08/26 05:22:21;;;;;;;13.05;5.60;;;;;;;;;;5017088;27;93118;-65
2023/08/26 05:24:47;;;;;;;19.38;5.45;;;;;;;;;;5019208;27;93549;-65
2023/08/26 05:27:14;;;;;;;11.77;5.25;;;;;;;;;;5021237;27;92806;-64
2023/08/26 05:29:40;;;;;;;19.23;5.78;;;;;;;;;;5014177;27;93579;-67
2023/08/26 05:32:06;;;;;;;17.15;5.30;;;;;;;;;;5014305;27;92634;-68
2023/08/26 05:34:33;;;;;;;12.65;5.20;;;;;;;;;;5013642;27;93134;-69
2023/08/26 05:36:59;;;;;;;10.65;4.82;;;;;;;;;;5013430;27;94440;-68
2023/08/26 05:39:26;;;;;;;15.68;5.85;;;;;;;;;;5017782;27;92583;-69
2023/08/26 05:41:52;;;;;;;14.07;4.93;;;;;;;;;;5019640;27;94874;-67
2023/08/26 05:44:18;;;;;;;11.45;4.78;;;;;;;;;;5013399;27;94498;-68
2023/08/26 05:46:45;;;;;;;12.70;5.15;;;;;;;;;;5014333;27;92484;-64
2023/08/26 05:49:11;;;;;;;16.95;4.90;;;;;;;;;;5020177;27;93064;-67
2023/08/26 05:51:37;;;;;;;16.48;5.57;;;;;;;;;;5017888;27;92682;-65
2023/08/26 05:54:04;;;;;;;19.70;4.38;;;;;;;;;;5013435;27;93152;-66
2023/08/26 05:56:30;;;;;;;11.52;4.53;;;;;;;;;;5013888;27;93475;-65
2023/08/26 05:58:57;;;;;;;13.60;4.55;;;;;;;;;;5014403;27;92022;-66
2023/08/26 06:01:23;;;;;;;15.90;5.05;;;;;;;;;;5016282;27;92592;-62
2023/08/26 06:03:49;;;;;;;13.38;4.35;;;;;;;;;;5012360;27;94392;-65
2023/08/26 06:06:16;;;;;;;14.40;4.90;;;;;;;;;;5018242;27;95058;-64
2023/08/26 06:08:42;;;;;;;10.90;4.78;;;;;;;;;;5013692;27;95561;-63
2023/08/26 06:11:08;;;;;;;18.83;4.32;;;;;;;;;;5022801;27;93463;-63
2023/08/26 06:13:35;;;;;;;12.45;4.70;;;;;;;;;;5013043;27;94441;-63
2023/08/26 06:16:02;;;;;;;15.23;4.60;;;;;;;;;;5013653;27;93384;-63
2023/08/26 06:18:28;;;;;;;10.90;4.28;;;;;;;;;;5011876;27;92448;-63
2023/08/26 06:20:55;;;;;;;19.95;6.68;;;;;;;;;;5014593;27;93847;-63
2023/08/26 06:23:21;;;;;;;10.02;4.40;;;;;;;;;;5012551;27;93170;-63
2023/08/26 06:25:54;;;;;;;18.92;4.95;;;;;;;;;;5025409;27;93411;-63
2023/08/26 06:28:21;;;;;;;7.07;4.03;;;;;;;;;;5013994;27;94209;-63
2023/08/26 06:30:47;;;;;;;10.90;4.32;;;;;;;;;;5010434;27;95715;-63
2023/08/26 06:33:13;;;;;;;14.48;4.20;;;;;;;;;;5021192;27;92512;-63
2023/08/26 06:35:40;;;;;;;7.93;4.10;;;;;;;;;;5014330;27;93295;-63
2023/08/26 06:38:07;;;;;;;11.52;4.50;;;;;;;;;;5012451;27;92494;-63
2023/08/26 06:40:34;;;;;;;15.77;4.07;;;;;;;;;;5012635;27;92802;-63
2023/08/26 06:43:03;;;;;;;8.38;4.28;;;;;;;;;;5016509;27;93404;-63
2023/08/26 06:45:30;;;;;;;11.02;3.83;;;;;;;;;;5018907;27;92380;-64
2023/08/26 06:47:57;;;;;;;10.48;4.00;;;;;;;;;;5016754;27;94339;-63
2023/08/26 06:50:24;;;;;;;12.80;4.43;;;;;;;;;;5013108;27;93425;-63
2023/08/26 06:52:51;;;;;;;11.85;4.38;;;;;;;;;;5015224;27;92693;-63
2023/08/26 06:55:17;;;;;;;14.45;4.03;;;;;;;;;;5013791;27;95000;-63
2023/08/26 06:57:44;;;;;;;11.60;4.28;;;;;;;;;;5011998;27;92736;-63
2023/08/26 07:00:12;;;;;;;12.55;4.47;;;;;;;;;;5017812;27;94062;-63
2023/08/26 07:02:38;;;;;;;12.23;4.45;;;;;;;;;;5013199;27;93402;-63
2023/08/26 07:05:04;;;;;;;11.55;4.03;;;;;;;;;;5012818;27;92694;-63
2023/08/26 07:07:31;;;;;;;13.40;4.15;;;;;;;;;;5019542;27;94191;-63
2023/08/26 07:09:57;;;;;;;12.13;4.45;;;;;;;;;;5018929;27;93365;-63
2023/08/26 07:12:23;;;;;;;10.45;4.38;;;;;;;;;;5011986;27;91880;-63
2023/08/26 07:14:50;;;;;;;7.90;3.85;;;;;;;;;;5012178;27;92571;-63
2023/08/26 07:17:17;;;;;;;11.73;3.67;;;;;;;;;;5018006;27;93471;-63
2023/08/26 07:19:44;;;;;;;16.15;4.30;;;;;;;;;;5017164;27;94801;-63
2023/08/26 07:22:10;;;;;;;14.70;4.10;;;;;;;;;;5013762;27;93407;-63
2023/08/26 07:24:37;;;;;;;15.18;4.15;;;;;;;;;;5013349;27;92438;-63
2023/08/26 07:27:04;;;;;;;17.38;4.35;;;;;;;;;;5016053;27;92570;-63
2023/08/26 07:29:33;;;;;;;11.00;3.80;;;;;;;;;;5015022;27;92933;-63
2023/08/26 07:31:59;;;;;;;7.32;2.97;;;;;;;;;;5017833;27;92618;-63
2023/08/26 07:34:26;;;;;;;10.68;4.07;;;;;;;;;;5019752;27;93147;-63
2023/08/26 07:36:52;;;;;;;10.32;3.80;;;;;;;;;;5020309;27;92680;-63
2023/08/26 07:39:20;;;;;;;9.95;3.60;;;;;;;;;;5014576;27;92818;-63
2023/08/26 07:41:46;;;;;;;7.45;3.05;;;;;;;;;;5021267;27;93484;-63
2023/08/26 07:44:13;;;;;;;8.77;3.40;;;;;;;;;;5014793;27;95009;-63
2023/08/26 07:46:39;;;;;;;10.35;3.50;;;;;;;;;;5017173;27;94208;-63
2023/08/26 07:49:08;;;;;;;11.68;2.88;;;;;;;;;;5019301;27;93239;-63
2023/08/26 07:51:35;;;;;;;8.30;3.17;;;;;;;;;;5017926;27;92531;-63
2023/08/26 07:54:01;;;;;;;11.38;3.22;;;;;;;;;;5020054;27;92928;-63
2023/08/26 07:56:27;;;;;;;7.88;2.72;;;;;;;;;;5016330;27;93408;-63
2023/08/26 07:58:54;;;;;;;10.98;2.47;;;;;;;;;;5028392;27;92949;-63
2023/08/26 08:01:20;;;;;;;8.27;2.95;;;;;;;;;;5021645;27;92603;-63
2023/08/26 08:03:47;;;;;;;14.63;2.78;;;;;;;;;;5016218;27;93284;-63
2023/08/26 08:06:13;;;;;;;6.15;2.42;;;;;;;;;;5015255;27;93147;-63
2023/08/26 08:08:40;;;;;;;12.32;2.83;;;;;;;;;;5013196;27;95790;-63
2023/08/26 08:11:06;;;;;;;10.95;2.90;;;;;;;;;;5018972;27;92639;-63
2023/08/26 08:13:32;;;;;;;8.75;2.63;;;;;;;;;;5020439;27;93070;-63
2023/08/26 08:16:01;;;;;;;4.90;2.70;;;;;;;;;;5019789;27;93010;-63
2023/08/26 08:18:28;;;;;;;7.97;3.42;;;;;;;;;;5021208;27;92642;-63
2023/08/26 08:20:54;;;;;;;9.45;2.83;;;;;;;;;;5019287;27;93101;-63
2023/08/26 08:23:21;;;;;;;8.30;2.92;;;;;;;;;;5015476;27;92551;-63
2023/08/26 08:25:47;;;;;;;6.97;2.60;;;;;;;;;;5027861;28;95111;-63
2023/08/26 08:28:13;;;;;;;12.07;3.28;;;;;;;;;;5020308;27;94385;-63
2023/08/26 08:30:40;;;;;;;7.47;2.50;;;;;;;;;;5019535;27;93695;-63
2023/08/26 08:33:06;;;;;;;8.82;2.97;;;;;;;;;;5017207;27;94961;-63
2023/08/26 08:35:32;;;;;;;10.30;2.55;;;;;;;;;;5017770;27;96463;-61
2023/08/26 08:37:59;;;;;;;12.07;2.55;;;;;;;;;;5016090;27;92517;-64
2023/08/26 08:40:25;;;;;;;6.88;3.08;;;;;;;;;;5019746;27;94257;-62
2023/08/26 08:42:52;;;;;;;17.10;3.85;;;;;;;;;;5018272;27;94274;-61
2023/08/26 08:45:19;;;;;;;7.50;3.17;;;;;;;;;;5025401;27;93067;-60
2023/08/26 08:47:47;;;;;;;8.02;3.08;;;;;;;;;;5016466;27;93555;-60
2023/08/26 08:50:14;;;;;;;9.65;3.08;;;;;;;;;;5030444;27;93420;-60
2023/08/26 08:52:42;;;;;;;5.45;2.50;;;;;;;;;;5015444;27;93284;-61
2023/08/26 08:55:08;;;;;;;10.77;3.28;;;;;;;;;;5018851;27;93275;-60
2023/08/26 08:57:35;;;;;;;8.98;3.80;;;;;;;;;;5019603;27;95357;-61
2023/08/26 09:00:03;;;;;;;11.00;3.35;;;;;;;;;;5022356;27;95602;-63
2023/08/26 09:02:30;;;;;;;7.10;3.08;;;;;;;;;;5027816;27;94380;-60
2023/08/26 09:04:57;;;;;;;8.48;3.03;;;;;;;;;;5020390;27;92631;-63
2023/08/26 09:07:24;;;;;;;10.15;2.72;;;;;;;;;;5016410;27;94377;-62
2023/08/26 09:09:51;;;;;;;10.98;3.63;;;;;;;;;;5014797;27;92425;-63
2023/08/26 09:12:29;;;;;;;9.77;2.72;;;;;;;;;;5013835;27;93332;-63
2023/08/26 09:14:55;;;;;;;4.50;2.65;;;;;;;;;;5016305;27;92712;-65
2023/08/26 09:17:21;;;;;;;7.07;3.33;;;;;;;;;;5016111;27;92427;-62
2023/08/26 09:19:50;;;;;;;5.60;3.28;;;;;;;;;;5014385;27;93034;-60
2023/08/26 09:22:18;;;;;;;11.57;3.58;;;;;;;;;;5010645;27;95639;-60
2023/08/26 09:24:44;;;;;;;5.35;3.55;;;;;;;;;;5025542;27;92767;-58
2023/08/26 09:27:14;;;;;;;6.45;3.10;;;;;;;;;;5017631;27;94161;-59
2023/08/26 09:29:40;;;;;;;3.55;2.65;;;;;;;;;;5012351;27;92515;-60
2023/08/26 09:32:06;;;;;;;3.58;2.47;;;;;;;;;;5013683;27;93109;-60
2023/08/26 09:34:33;;;;;;;5.20;2.35;;;;;;;;;;5012836;27;93473;-60
2023/08/26 09:36:59;;;;;;;5.53;2.95;;;;;;;;;;5017757;27;92410;-60
2023/08/26 09:39:26;;;;;;;3.75;2.75;;;;;;;;;;5017502;27;94232;-60
2023/08/26 09:41:54;;;;;;;7.38;3.42;;;;;;;;;;5015150;27;93385;-60
2023/08/26 09:44:23;;;;;;;3.60;2.92;;;;;;;;;;5018261;27;92606;-60
2023/08/26 09:46:50;;;;;;;7.78;3.20;;;;;;;;;;5017796;27;94984;-61
2023/08/26 09:49:17;;;;;;;4.88;2.80;;;;;;;;;;5014349;27;92571;-60
2023/08/26 09:51:47;;;;;;;4.93;2.95;;;;;;;;;;5014388;27;93094;-60
2023/08/26 09:54:17;;;;;;;6.78;3.40;;;;;;;;;;5015544;27;94477;-60
2023/08/26 09:56:44;;;;;;;;;;;;;;;;;;5013863;27;92761;-59
2023/08/26 09:59:10;;;;;;;11.95;2.92;;;;;;;;;;5018239;27;123341;-60
2023/08/26 10:01:37;;;;;;;5.65;2.72;;;;;;;;;;5012226;27;92455;-60
2023/08/26 10:04:10;;;;;;;4.53;2.60;;;;;;;;;;5020035;27;93295;-60
2023/08/26 10:07:03;;;;;;;8.50;2.80;;;;;;;;;;5013111;27;96629;-60
2023/08/26 10:09:29;;;;;;;6.15;3.00;;;;;;;;;;5013337;27;93385;-60
2023/08/26 10:11:57;;;;;;;9.02;2.90;;;;;;;;;;5018933;27;94866;-60
2023/08/26 10:14:24;;;;;;;11.13;3.17;;;;;;;;;;5015451;27;93390;-60
2023/08/26 10:16:53;;;;;;;3.50;2.78;;;;;;;;;;5017653;27;92536;-60
2023/08/26 10:19:20;;;;;;;4.35;2.47;;;;;;;;;;5013768;27;92866;-62
2023/08/26 10:21:46;;;;;;;6.53;2.65;;;;;;;;;;5013878;27;93703;-60
2023/08/26 10:24:15;;;;;;;7.82;2.42;;;;;;;;;;5012793;27;92443;-61
2023/08/26 10:26:41;;;;;;;6.30;2.42;;;;;;;;;;5013153;27;92995;-63
2023/08/26 10:29:08;;;;;;;6.50;3.05;;;;;;;;;;5017527;27;93776;-64
2023/08/26 10:31:43;;;;;;;7.07;2.40;;;;;;;;;;5017288;27;92544;-61
2023/08/26 10:34:09;;;;;;;5.35;2.28;;;;;;;;;;5014887;27;93427;-62
2023/08/26 10:36:37;;;;;;;7.13;2.92;;;;;;;;;;5011564;27;94940;-61
2023/08/26 10:39:04;;;;;;;3.63;2.15;;;;;;;;;;5017843;27;96548;-60
2023/08/26 10:41:30;;;;;;;2.42;1.90;;;;;;;;;;5013887;27;93505;-60
2023/08/26 10:43:58;;;;;;;8.02;2.00;;;;;;;;;;5013128;27;92838;-60
2023/08/26 10:46:31;;;;;;;8.73;2.20;;;;;;;;;;5014578;27;93296;-61
2023/08/26 10:48:59;;;;;;;4.05;2.05;;;;;;;;;;5015561;27;93429;-61
2023/08/26 10:51:26;;;;;;;4.90;2.08;;;;;;;;;;5013148;27;93415;-61
2023/08/26 10:53:59;;;;;;;6.18;2.42;;;;;;;;;;5016208;27;93683;-61
2023/08/26 10:56:27;;;;;;;7.60;2.33;;;;;;;;;;5013211;27;92457;-61
2023/08/26 10:58:59;;;;;;;6.47;2.30;;;;;;;;;;5016489;27;93078;-60
2023/08/26 11:01:25;;;;;;;3.88;2.03;;;;;;;;;;5011560;27;96091;-61
2023/08/26 11:03:54;;;;;;;3.72;2.15;;;;;;;;;;5013183;27;92637;-60
2023/08/26 11:06:22;;;;;;;8.25;1.88;;;;;;;;;;5012257;27;92900;-61
2023/08/26 11:08:56;;;;;;;5.15;2.42;;;;;;;;;;5016467;27;94400;-60
2023/08/26 11:11:23;;;;;;;2.90;1.55;;;;;;;;;;5012575;27;92787;-60
2023/08/26 11:13:50;;;;;;;6.20;1.92;;;;;;;;;;5015789;27;93092;-61
2023/08/26 11:16:17;;;;;;;5.82;2.30;;;;;;;;;;5018154;27;93406;-61
2023/08/26 11:18:44;;;;;;;10.77;2.47;;;;;;;;;;5013323;27;93757;-60
2023/08/26 11:21:12;;;;;;;9.13;2.70;;;;;;;;;;5013685;27;94956;-60
2023/08/26 11:23:39;;;;;;;11.55;3.50;;;;;;;;;;5020704;27;92520;-60
2023/08/26 11:26:07;;;;;;;9.98;3.13;;;;;;;;;;5014888;27;94877;-60
2023/08/26 11:28:34;;;;;;;6.35;3.08;;;;;;;;;;5016175;27;92358;-60
2023/08/26 11:31:00;;;;;;;6.07;2.80;;;;;;;;;;5015981;27;92356;-60
2023/08/26 11:33:27;;;;;;;8.68;2.90;;;;;;;;;;5012937;27;94201;-61
2023/08/26 11:35:53;;;;;;;5.43;3.03;;;;;;;;;;5016973;27;93272;-61
2023/08/26 11:38:34;;;;;;;5.22;2.70;;;;;;;;;;5014911;27;92550;-61
2023/08/26 11:41:07;;;;;;;8.13;3.22;;;;;;;;;;5011172;27;93962;-61
2023/08/26 11:43:34;;;;;;;4.60;3.00;;;;;;;;;;5016599;27;92057;-61
2023/08/26 11:46:00;;;;;;;6.15;3.10;;;;;;;;;;5012744;27;92532;-60
2023/08/26 11:48:27;;;;;;;5.70;3.03;;;;;;;;;;5014285;27;92621;-61
2023/08/26 11:50:59;;;;;;;11.55;3.47;;;;;;;;;;5010867;27;94926;-60
2023/08/26 11:53:25;;;;;;;6.28;3.35;;;;;;;;;;5011510;27;95808;-60
2023/08/26 11:55:52;;;;;;;6.60;3.47;;;;;;;;;;5016583;27;93456;-60
2023/08/26 11:58:18;;;;;;;4.97;3.45;;;;;;;;;;5015424;27;92439;-61
2023/08/26 12:00:45;;;;;;;5.13;3.33;;;;;;;;;;5012248;27;93851;-61
2023/08/26 12:03:11;;;;;;;8.57;2.83;;;;;;;;;;5012342;27;92547;-61
2023/08/26 12:05:45;;;;;;;7.53;3.13;;;;;;;;;;5015524;27;92833;-60
2023/08/26 12:08:13;;;;;;;9.23;3.17;;;;;;;;;;5016515;27;92994;-60
2023/08/26 12:10:39;;;;;;;11.68;3.28;;;;;;;;;;5011945;27;92593;-61
2023/08/26 12:13:06;;;;;;;6.30;3.00;;;;;;;;;;5015751;27;94101;-60
2023/08/26 12:15:32;;;;;;;6.32;2.95;;;;;;;;;;5015374;27;96822;-61
2023/08/26 12:18:00;;;;;;;9.25;3.42;;;;;;;;;;5023986;27;92442;-61
2023/08/26 12:20:30;;;;;;;6.38;2.88;;;;;;;;;;5019187;27;93541;-61
2023/08/26 12:23:00;;;;;;;5.40;2.50;;;;;;;;;;5014924;27;92545;-61
2023/08/26 12:25:27;;;;;;;6.20;2.50;;;;;;;;;;5014799;27;94474;-60
2023/08/26 12:28:04;;;;;;;8.82;2.28;;;;;;;;;;5023758;27;93260;-60
2023/08/26 12:30:30;;;;;;;3.63;1.77;;;;;;;;;;5014872;27;92342;-61
2023/08/26 12:32:57;;;;;;;9.07;2.20;;;;;;;;;;5019277;27;93137;-60
2023/08/26 12:35:23;;;;;;;4.15;1.65;;;;;;;;;;5013941;27;93579;-60
2023/08/26 12:37:49;;;;;;;6.72;1.95;;;;;;;;;;5019273;27;92465;-61
2023/08/26 12:40:16;;;;;;;3.35;1.70;;;;;;;;;;5013149;27;94805;-61
2023/08/26 12:42:42;;;;;;;4.25;1.17;;;;;;;;;;5017800;27;94379;-61
2023/08/26 12:45:09;;;;;;;2.67;1.25;;;;;;;;;;5018137;27;93191;-61
2023/08/26 12:47:35;;;;;;;2.35;1.52;;;;;;;;;;5022236;27;93382;-61
2023/08/26 12:50:03;;;;;;;3.33;1.40;;;;;;;;;;5014365;27;92603;-60
2023/08/26 12:52:30;;;;;;;4.78;1.33;;;;;;;;;;5015180;27;93077;-60
2023/08/26 12:54:56;;;;;;;4.95;1.58;;;;;;;;;;5014544;27;93256;-61
2023/08/26 12:57:22;;;;;;;6.15;1.70;;;;;;;;;;5015196;27;91710;-60
2023/08/26 12:59:49;;;;;;;3.15;1.20;;;;;;;;;;5014286;27;92753;-60
2023/08/26 13:02:15;;;;;;;3.75;1.50;;;;;;;;;;5014829;27;93757;-61
2023/08/26 13:04:41;;;;;;;6.70;1.80;;;;;;;;;;5023128;27;94912;-61
2023/08/26 13:07:08;;;;;;;4.82;1.50;;;;;;;;;;5014093;27;93092;-61
2023/08/26 13:09:34;;;;;;;2.75;1.80;;;;;;;;;;5013693;27;92413;-61
2023/08/26 13:12:01;;;;;;;3.35;1.20;;;;;;;;;;5014731;27;94185;-60
2023/08/26 13:14:27;;;;;;;3.13;1.65;;;;;;;;;;5013755;27;93453;-61
2023/08/26 13:16:55;;;;;;;2.70;1.58;;;;;;;;;;5020231;27;92551;-61
2023/08/26 13:19:21;;;;;;;3.83;1.98;;;;;;;;;;5014151;27;93140;-61
2023/08/26 13:21:49;;;;;;;4.82;2.20;;;;;;;;;;5016808;27;91802;-60
2023/08/26 13:24:16;;;;;;;4.00;2.10;;;;;;;;;;5019090;27;92431;-61
2023/08/26 13:26:43;;;;;;;3.85;2.28;;;;;;;;;;5021235;27;93478;-60
2023/08/26 13:29:09;;;;;;;5.40;2.67;;;;;;;;;;5012428;27;94865;-60
2023/08/26 13:31:35;;;;;;;8.13;3.03;;;;;;;;;;5013918;28;95929;-60
2023/08/26 13:34:03;;;;;;;7.38;3.60;;;;;;;;;;5014015;27;93579;-60
2023/08/26 13:36:29;;;;;;;10.50;3.70;;;;;;;;;;5014084;27;92543;-60
2023/08/26 13:39:14;;;;;;;6.32;3.88;;;;;;;;;;5013461;27;93198;-60
2023/08/26 13:41:41;;;;;;;6.03;3.20;;;;;;;;;;5017457;27;93404;-60
2023/08/26 13:44:07;;;;;;;6.97;3.45;;;;;;;;;;5014188;27;92543;-60
2023/08/26 13:46:33;;;;;;;10.25;3.55;;;;;;;;;;5021095;27;94137;-60
2023/08/26 13:49:01;;;;;;;4.93;3.13;;;;;;;;;;5014351;27;92491;-60
2023/08/26 13:51:27;;;;;;;7.47;3.75;;;;;;;;;;5013012;27;93762;-60
2023/08/26 13:53:54;;;;;;;6.93;3.65;;;;;;;;;;5012567;27;96139;-61
2023/08/26 13:56:20;;;;;;;7.80;3.90;;;;;;;;;;5013474;27;92444;-60
2023/08/26 13:58:47;;;;;;;9.70;3.20;;;;;;;;;;5014629;27;94584;-61
2023/08/26 14:01:13;;;;;;;5.70;3.50;;;;;;;;;;5013781;27;94373;-60
2023/08/26 14:03:40;;;;;;;4.03;3.17;;;;;;;;;;5017359;27;92410;-60
2023/08/26 14:06:06;;;;;;;5.68;3.40;;;;;;;;;;5012788;27;93253;-60
2023/08/26 14:08:33;;;;;;;5.70;3.67;;;;;;;;;;5018392;27;93400;-60
2023/08/26 14:11:00;;;;;;;6.10;3.20;;;;;;;;;;5016480;27;94568;-60
2023/08/26 14:13:27;;;;;;;3.50;2.55;;;;;;;;;;5012791;27;94420;-60
2023/08/26 14:15:53;;;;;;;3.88;1.70;;;;;;;;;;5017647;27;92448;-60
2023/08/26 14:18:20;;;;;;;2.47;1.65;;;;;;;;;;5014593;27;95099;-60
2023/08/26 14:20:47;;;;;;;5.72;1.40;;;;;;;;;;5015109;27;94823;-61
2023/08/26 14:23:13;;;;;;;4.18;1.40;;;;;;;;;;5013784;27;92527;-60
2023/08/26 14:25:41;;;;;;;3.60;1.02;;;;;;;;;;5013196;27;93445;-60
2023/08/26 14:28:07;;;;;;;2.42;1.00;;;;;;;;;;5012788;27;94326;-60
2023/08/26 14:30:34;;;;;;;4.50;1.20;;;;;;;;;;5020502;27;92464;-60
2023/08/26 14:33:00;;;;;;;0.88;0.80;;;;;;;;;;5012776;27;93349;-60
2023/08/26 14:35:26;;;;;;;1.85;1.10;;;;;;;;;;5012944;27;91677;-60
2023/08/26 14:37:53;;;;;;;1.25;1.15;;;;;;;;;;5013568;27;92727;-60